LEMG/AGP METAR and TAF weather

Enter ICAO airport designator
Station Type Date Time Source
LEMG METAR 2022/06/30 01:30 UTC NOAA

LEMG 300130Z 30003KT CAVOK 19/18 Q1012 NOSIG


Station Type Date Time Source
LEMG Decoded METAR 2022/06/30 01:30 UTC NOAA

Malaga / Aeropuerto, Spain (LEMG) 36-40N 004-29W 7M
Jun 29, 2022 - 09:30 PM EDT / 2022.06.30 0130 UTC
Wind: from the WNW (300 degrees) at 3 MPH (3 KT):0
Visibility: greater than 7 mile(s):0
Temperature: 66 F (19 C)
Dew Point: 64 F (18 C)
Relative Humidity: 93%
Pressure (altimeter): 29.88 in. Hg (1012 hPa)
ob: LEMG 300130Z 30003KT CAVOK 19/18 Q1012 NOSIG
cycle: 1

Station Type Date Time Source
LEMG TAF 2022/06/29 18:27 UTC NOAA

TAF TAF LEMG 291700Z 2918/3018 14010KT CAVOK TX32/3012Z TN19/3005Z
BECMG 2920/2922 VRB02KT PROB30
TEMPO 3000/3005 BKN005
BECMG 3003/3005 28008KT
BECMG 3010/3012 15008KT

Example: see airport list